Ride Results

Rockybar (14-05-2016)
Ride distance: 100.0 km Elevator

Outcomes - Rockybar (14-05-2016)
Division No. of Entries Retired / DNE Completed Withdrawn Ineligible V/O Percentage Completed
HW 13 6 2 1 - 4 61.54%
MW 37 24 3 1 1 8 72.97%
LW 29 19 5 1 1 3 82.76%
JN 10 4 3 1 - 2 70.00%
Totals 89 53 13 4 2 17 74.16%
Results - Rockybar (14-05-2016)
No. Rider Horse Place Time Leg Speeds Total
Km/Hr
H/R bpm
Heavyweight
35 Maurice Gray Aloha Queen 1 (BC) 6:58:00 16.8, 13.7, 11.8 14.35 37, 44, 49, 52 (Avg:48)
62 Gavin Bartlett Longrun Drifter 2 9:02:00 12.4, 10.5, 9.7 11.07 35, 42, 56, 44 (Avg:47)
94 Chris Nichols Bashan Memphis Retired/DNE L2 5:03:00 16.7, 15.0 15.84 36, 46, 47 (Avg:46)
86 Paul Lengronne Kai Hai Sterling Aaramis Retired/DNE L2 6:19:00 13.1, 12.1 12.66 34, 47, 44 (Avg:45)
49 Tasha Jeremy Hirstglen Bellarina Retired/DNE L2 6:21:00 12.7, 12.4 12.60 33, 50, 48 (Avg:49)
9 Allison Kay Delilah te Retired/DNE L2 6:31:00 12.7, 11.8 12.28 28, 39, 59 (Avg:49)
1 Rob Scott Count Crysdafa Retired/DNE L2 7:03:00 12.4, 10.3 11.35 36, 43, 38 (Avg:40)
40 Nathan Kerrison Sonata Retired/DNE L2 8:54:00 10.1, 8.0 8.99 31, 45, 52 (Avg:48)
60 Mick Burns Shakira BDA Withdrawn L2 0:00:00 - - 34, 47, 53 (Avg:50)
5 Sue Gurtner Cedarton Achak Abornazine Heart Rate L2 0:00:00 12.1, 8.7 - 33, 51, 63 (Avg:57)
89 Matthew Gadsby Ra Silver Dancer Heart Rate L1 0:00:00 17.9 - 33, 77 (Avg:77)
57 Jessica Irvine Karma Lame L1 0:00:00 8.9 - 34, 48 (Avg:48)
56 Mark Nimon Alon Dawn Lame L1 0:00:00 13.1 - 32, 46 (Avg:46)
Middleweight
88 Marion Lengronne Kalkadoon Vienna 1 (BC) 5:58:00 19.3, 15.8, 14.4 16.76 31, 41, 42, 40 (Avg:41)
96 Lynne Drinkwater Ollympia 2 6:28:00 15.4, 16.9, 13.1 15.46 36, 45, 44, 47 (Avg:45)
80 Fiona Fenech Winderella Lodge Sphinx 3 7:42:00 13.1, 13.2, 12.2 12.99 42, 37, 42, 44 (Avg:41)
19 Brook Sample Brookleigh Ferris Retired/DNE L2 5:36:00 16.9, 12.3 14.29 32, 44, 49 (Avg:46)
26 Amber Sole Magic Glenn General Retired/DNE L2 5:36:00 16.8, 12.3 14.29 33, 41, 43 (Avg:42)
33 Jacinta Stubbings Cameo Pygmalion Retired/DNE L2 5:53:00 15.8, 11.8 13.60 34, 44, 49 (Avg:46)
20 Gayle Holmes Magic Glenn Chisel Retired/DNE L2 6:03:00 13.2, 13.1 13.22 38, 42, 43 (Avg:42)
90 Brenda Davy Sweet Sensation Retired/DNE L2 6:13:00 12.6, 13.1 12.87 34, 36, 44 (Avg:40)
27 Floor Braunius Brookleigh Dylan Retired/DNE L2 6:18:00 12.4, 12.9 12.70 34, 41, 47 (Avg:44)
47 Jessyca Dakin Boonara Tex Retired/DNE L2 6:21:00 12.7, 12.4 12.60 35, 45, 54 (Avg:49)
8 Danielle Kendall Zerox te Retired/DNE L2 6:31:00 12.7, 11.8 12.28 30, 40, 55 (Avg:47)
55 Andrew Hoey Erin Park GBH Retired/DNE L2 6:38:00 11.9, 12.1 12.06 32, 44, 48 (Avg:46)
59 Jackie Gilks Reid River Reflectshine Retired/DNE L2 6:48:00 12.3, 11.2 11.76 38, 48, 48 (Avg:48)
16 Tim Baumann Woodbourne Pay Cheque Retired/DNE L2 6:52:00 12.9, 10.5 11.65 36, 45, 57 (Avg:51)
14 Rhys Rayner Saddler Retired/DNE L2 6:52:00 12.6, 10.8 11.65 36, 51, 43 (Avg:47)
45 Angela Beverley Buck Retired/DNE L2 6:55:00 13.1, 10.3 11.57 34, 44, 41 (Avg:42)
34 Ruth Dixon El Romero Retired/DNE L2 6:55:00 12.8, 10.5 11.57 27, 40, 48 (Avg:44)
7 Susie Reed Follydown Bint Ajouz Retired/DNE L2 7:03:00 12.9, 10.1 11.35 32, 47, 45 (Avg:46)
6 Leisa Watt Dejay Bey Wardija Retired/DNE L2 7:05:00 12.9, 10.0 11.29 29, 38, 46 (Avg:42)
78 Kirsty Nicholson Gabri-El El Malek Retired/DNE L2 7:16:00 12.6, 9.7 11.01 43, 52, 49 (Avg:50)
63 Olga Bartlett Mt Eerwah Anastazia Retired/DNE L2 7:17:00 12.4, 9.7 10.98 31, 40, 41 (Avg:40)
61 Lynelle Greenwood Gheerulla Ambition Retired/DNE L2 7:17:00 12.4, 9.7 10.98 35, 42, 41 (Avg:41)
3 Lyndell Abercrombie Natham Park Psychedellik Retired/DNE L2 7:19:00 11.4, 10.4 10.93 36, 47, 45 (Avg:46)
36 Graysen Clarke Gray-Gun Vanharlen Retired/DNE L2 7:25:00 11.4, 10.1 10.79 31, 39, 48 (Avg:43)
50 Lexi Morton Cooroora Euros Retired/DNE L2 7:31:00 11.9, 9.5 10.64 37, 44, 46 (Avg:45)
38 Phil Thomson Performance Park Maverick Retired/DNE L2 7:31:00 11.4, 9.9 10.64 28, 38, 42 (Avg:40)
39 Bettina Mertel LD Gunner Dance Retired/DNE L2 8:54:00 10.1, 8.0 8.99 30, 43, 44 (Avg:43)
44 David Urquhart Zippidy Dodah te Lame L3 0:00:00 16.1, 15.5, 15.7 - 31, 40, 42, 45 (Avg:42)
85 Ken Moir Shian Heart Rate L2 0:00:00 15.5, 11.7 - 51, 50, 76 (Avg:63)
12 Atalia Wood Rocky Lame L2 0:00:00 12.0, 9.5 - 28, 43, 50 (Avg:46)
15 Ian Davidson Woodbourne The Dealer Heart Rate L1 0:00:00 12.9 - 30, 68 (Avg:68)
31 Alli Gerrard Mafraq Lame L1 0:00:00 12.7 - 30, 35 (Avg:35)
74 Jamie Green Chelleason Rembrandt Heart Rate L1 0:00:00 17.0 - 38, 63 (Avg:63)
18 Hayley Sawrey Mt Eerwah Romonous Withdrawn L1 0:00:00 - - 32, 41 (Avg:41)
77 Ema Basic Melton Teddy Bear Lame P/R 0:00:00 - - 34
28 Jenna Booth Gheerulla Anton Not started P/R 0:00:00 - - -
17 Danielle Cullen Miva Zamil Lame P/R 0:00:00 - - 35
Lightweight
87 Mindy Davies Aphrodite Malakia 1 (BC) 5:58:00 19.3, 15.8, 14.4 16.76 36, 50, 44, 43 (Avg:45)
2 Christine Christie Sateen 2 6:26:00 19.2, 15.3, 11.4 15.54 32, 55, 47, 50 (Avg:50)
83 Jess Langridge Anglesea Tasman 3 6:36:00 15.5, 14.9, 14.8 15.15 33, 47, 48, 53 (Avg:49)
30 Jocelyn Barnes Larabi Rummanni 4 7:31:00 12.7, 14.2, 12.7 13.30 38, 41, 43, 44 (Avg:42)
11 Bridget Macintyre Champ 5 9:33:00 12.7, 10.4, 7.7 10.47 34, 40, 46, 44 (Avg:43)
46 Janelle Taylor Calico Jarkamarn Retired/DNE L2 4:35:00 19.2, 15.9 17.45 35, 43, 44 (Avg:43)
32 Shelley Chapman Sahala Astronomer Retired/DNE L2 4:41:00 18.8, 15.5 17.08 35, 45, 60 (Avg:52)
29 Tahlia Franke Shanelli-Park Phoenix Retired/DNE L2 4:41:00 18.8, 15.5 17.08 45, 45, 57 (Avg:51)
71 Mandy Doyle Aqaba Pride Of Erin Retired/DNE L2 5:17:00 17.0, 13.6 15.14 41, 51, 57 (Avg:54)
25 Luisa Haguiara Porto Alegre Magic Glenn Tayla Retired/DNE L2 5:36:00 16.8, 12.3 14.29 37, 39, 40 (Avg:39)
23 Gemma Sutcliffe Magic Glenn Avelina Retired/DNE L2 5:36:00 16.8, 12.4 14.29 37, 46, 50 (Avg:48)
79 Isabella Teh Eus Warman Retired/DNE L2 5:59:00 16.3, 11.3 13.37 36, 51, 53 (Avg:52)
64 Ute Jordan Anijoa Delilah Retired/DNE L2 6:06:00 13.0, 13.1 13.11 34, 40, 49 (Avg:44)
70 Belinda Redhead Golden Thunder Retired/DNE L2 6:06:00 13.0, 13.1 13.11 36, 40, 46 (Avg:43)
93 Natasha Willemse Bashan Solomon Retired/DNE L2 6:13:00 12.6, 13.1 12.87 31, 42, 48 (Avg:45)
24 Malin Olsson Brookleigh Beyonce Retired/DNE L2 6:18:00 12.4, 12.9 12.70 34, 41, 45 (Avg:43)
95 Adriana Sardoni Willowvale Sirahh Retired/DNE L2 6:38:00 11.9, 12.1 12.06 37, 46, 45 (Avg:45)
58 Leigh Rich Miva Avanti Retired/DNE L2 6:48:00 12.3, 11.2 11.76 43, 47, 53 (Avg:50)
73 Kaylea Maher Ilary Park Sirocco Retired/DNE L2 6:56:00 11.6, 11.4 11.54 35, 48, 49 (Avg:48)
42 Priscilla Macmillan Cameo Silver Slipper Retired/DNE L2 7:00:00 12.4, 10.5 11.43 37, 42, 46 (Avg:44)
76 Sascha Jones Die Kinder Kirin Retired/DNE L2 7:01:00 11.7, 11.1 11.40 40, 46, 49 (Avg:47)
82 Anna Wyroslak Sterling's Zena Retired/DNE L2 7:01:00 11.7, 11.1 11.40 41, 44, 49 (Avg:46)
4 Candice Gurtner Rodborough Sarita Retired/DNE L2 7:51:00 12.1, 8.7 10.19 36, 47, 46 (Avg:46)
75 Christal Rizk Poco Lingotte Retired/DNE L2 8:25:00 11.4, 8.1 9.50 32, 43, 46 (Avg:44)
52 Ashleigh Grassick Dunbar Caspian Lame L2 0:00:00 11.9, 9.5 - 33, 42, 40 (Avg:41)
10 Alexandra Toft Karamea Mardan Lame L2 0:00:00 12.7, 11.8 - 38, 43, 49 (Avg:46)
41 Claire McManus Cameo Graziella Lame L1 0:00:00 15.8 - 34, 40 (Avg:40)
84 Sue Sutcliffe Zanes Shadow Withdrawn L1 0:00:00 - - 84, 53 (Avg:53)
21 Leigh Ann Sample Gheerulla Dallas Not started P/R 0:00:00 - - 34
Junior
92 Ronan McKay Bashan Kayla 1 6:27:00 16.7, 15.0, 14.2 15.50 29, 36, 40, 48 (Avg:41)
81 Emma Dimech Danic Park Sophira 2 (BC) 7:42:00 13.1, 13.2, 12.2 12.99 41, 40, 46, 46 (Avg:44)
13 Emilie Jensen Monster Energy 3 8:28:00 11.9, 12.1, 10.9 11.81 36, 44, 49, 54 (Avg:49)
48 Alissa Woods Crystan Retired/DNE L2 6:21:00 12.7, 12.4 12.60 34, 43, 51 (Avg:47)
72 Ben Hoey Box Hill Fluke Retired/DNE L2 6:56:00 11.6, 11.4 11.54 31, 45, 53 (Avg:49)
37 Maddi Dixon Melcot Bella Retired/DNE L2 7:25:00 11.4, 10.1 10.79 30, 39, 41 (Avg:40)
51 Georgia Morton Mt Eerwah Silver Mariner Retired/DNE L2 7:31:00 11.9, 9.5 10.64 30, 42, 42 (Avg:42)
54 Jayd Sansucie Gums Kawielie Lame L3 0:00:00 19.3, 15.8, 13.1 - 38, 55, 58, 55 (Avg:56)
22 Tissi McKay Gheerulla Delia Withdrawn L1 0:00:00 - - 36, 39 (Avg:39)
91 Maeve Paten Kelkette Park Silver Envoy Lame L1 0:00:00 16.7 - 33, 44 (Avg:44)